sensor_id;sensor_type;location;lat;lon;timestamp;temperature;humidity
23499;DHT22;11926;48.120;11.562;2023-08-06T00:01:26;17.00;99.90
23499;DHT22;11926;48.120;11.562;2023-08-06T00:04:17;17.00;99.90
23499;DHT22;11926;48.120;11.562;2023-08-06T00:07:06;17.00;99.90
23499;DHT22;11926;48.120;11.562;2023-08-06T00:09:55;17.00;99.90
23499;DHT22;11926;48.120;11.562;2023-08-06T00:12:44;17.00;99.90
23499;DHT22;11926;48.120;11.562;2023-08-06T00:15:32;17.00;99.90
23499;DHT22;11926;48.120;11.562;2023-08-06T00:18:21;17.00;99.90
23499;DHT22;11926;48.120;11.562;2023-08-06T00:21:11;17.00;99.90
23499;DHT22;11926;48.120;11.562;2023-08-06T00:24:00;16.90;99.90
23499;DHT22;11926;48.120;11.562;2023-08-06T00:26:48;16.90;99.90
23499;DHT22;11926;48.120;11.562;2023-08-06T00:29:37;16.80;99.90
23499;DHT22;11926;48.120;11.562;2023-08-06T00:32:25;16.80;99.90
23499;DHT22;11926;48.120;11.562;2023-08-06T00:35:14;16.70;99.90
23499;DHT22;11926;48.120;11.562;2023-08-06T00:38:04;16.70;99.90
23499;DHT22;11926;48.120;11.562;2023-08-06T00:40:53;16.60;99.90
23499;DHT22;11926;48.120;11.562;2023-08-06T00:43:41;16.60;99.90
23499;DHT22;11926;48.120;11.562;2023-08-06T00:46:32;16.50;99.90
23499;DHT22;11926;48.120;11.562;2023-08-06T00:49:22;16.40;99.90
23499;DHT22;11926;48.120;11.562;2023-08-06T00:52:11;16.40;99.90
23499;DHT22;11926;48.120;11.562;2023-08-06T00:55:02;16.40;99.90
23499;DHT22;11926;48.120;11.562;2023-08-06T00:57:52;16.40;99.90
23499;DHT22;11926;48.120;11.562;2023-08-06T01:00:43;16.40;99.90
23499;DHT22;11926;48.120;11.562;2023-08-06T01:03:34;16.40;99.90
23499;DHT22;11926;48.120;11.562;2023-08-06T01:06:31;16.40;99.90
23499;DHT22;11926;48.120;11.562;2023-08-06T01:09:33;16.40;99.90
23499;DHT22;11926;48.120;11.562;2023-08-06T01:12:32;16.30;99.90
23499;DHT22;11926;48.120;11.562;2023-08-06T01:15:27;16.30;99.90
23499;DHT22;11926;48.120;11.562;2023-08-06T01:18:16;16.20;99.90
23499;DHT22;11926;48.120;11.562;2023-08-06T01:21:06;16.20;99.90
23499;DHT22;11926;48.120;11.562;2023-08-06T01:23:55;16.10;99.90
23499;DHT22;11926;48.120;11.562;2023-08-06T01:26:48;16.10;99.90
23499;DHT22;11926;48.120;11.562;2023-08-06T01:29:43;16.10;99.90
23499;DHT22;11926;48.120;11.562;2023-08-06T01:32:35;16.10;99.90
23499;DHT22;11926;48.120;11.562;2023-08-06T01:35:27;16.10;99.90
23499;DHT22;11926;48.120;11.562;2023-08-06T01:38:19;16.00;99.90
23499;DHT22;11926;48.120;11.562;2023-08-06T01:41:08;16.00;99.90
23499;DHT22;11926;48.120;11.562;2023-08-06T01:43:56;16.00;99.90
23499;DHT22;11926;48.120;11.562;2023-08-06T01:46:45;16.00;99.90
23499;DHT22;11926;48.120;11.562;2023-08-06T01:49:34;16.00;99.90
23499;DHT22;11926;48.120;11.562;2023-08-06T01:52:22;15.90;99.90
23499;DHT22;11926;48.120;11.562;2023-08-06T01:55:13;16.00;99.90
23499;DHT22;11926;48.120;11.562;2023-08-06T01:58:02;15.90;99.90
23499;DHT22;11926;48.120;11.562;2023-08-06T02:00:50;15.90;99.90
23499;DHT22;11926;48.120;11.562;2023-08-06T02:03:39;15.90;99.90
23499;DHT22;11926;48.120;11.562;2023-08-06T02:06:29;15.90;99.90
23499;DHT22;11926;48.120;11.562;2023-08-06T02:09:17;15.90;99.90
23499;DHT22;11926;48.120;11.562;2023-08-06T02:12:07;15.80;99.90
23499;DHT22;11926;48.120;11.562;2023-08-06T02:14:56;15.80;99.90
23499;DHT22;11926;48.120;11.562;2023-08-06T02:17:44;15.80;99.90
23499;DHT22;11926;48.120;11.562;2023-08-06T02:20:32;15.90;99.90
23499;DHT22;11926;48.120;11.562;2023-08-06T02:23:21;15.90;99.90
23499;DHT22;11926;48.120;11.562;2023-08-06T02:26:10;15.90;99.90
23499;DHT22;11926;48.120;11.562;2023-08-06T02:28:59;15.90;99.90
23499;DHT22;11926;48.120;11.562;2023-08-06T02:31:48;15.70;99.90
23499;DHT22;11926;48.120;11.562;2023-08-06T02:34:37;15.70;99.90
23499;DHT22;11926;48.120;11.562;2023-08-06T02:37:26;15.60;99.90
23499;DHT22;11926;48.120;11.562;2023-08-06T02:40:15;15.60;99.90
23499;DHT22;11926;48.120;11.562;2023-08-06T02:43:04;15.60;99.90
23499;DHT22;11926;48.120;11.562;2023-08-06T02:45:57;15.60;99.90
23499;DHT22;11926;48.120;11.562;2023-08-06T02:48:47;15.60;99.90
23499;DHT22;11926;48.120;11.562;2023-08-06T02:51:35;15.50;99.90
23499;DHT22;11926;48.120;11.562;2023-08-06T02:54:24;15.50;99.90
23499;DHT22;11926;48.120;11.562;2023-08-06T02:57:13;15.50;99.90
23499;DHT22;11926;48.120;11.562;2023-08-06T03:00:05;15.40;99.90
23499;DHT22;11926;48.120;11.562;2023-08-06T03:02:53;15.40;99.90
23499;DHT22;11926;48.120;11.562;2023-08-06T03:05:52;15.40;99.90
23499;DHT22;11926;48.120;11.562;2023-08-06T03:08:51;15.30;99.90
23499;DHT22;11926;48.120;11.562;2023-08-06T03:11:38;15.30;99.90
23499;DHT22;11926;48.120;11.562;2023-08-06T03:14:30;15.30;99.90
23499;DHT22;11926;48.120;11.562;2023-08-06T03:17:17;15.20;99.90
23499;DHT22;11926;48.120;11.562;2023-08-06T03:20:06;15.20;99.90
23499;DHT22;11926;48.120;11.562;2023-08-06T03:22:54;15.10;99.90
23499;DHT22;11926;48.120;11.562;2023-08-06T03:25:42;15.10;99.90
23499;DHT22;11926;48.120;11.562;2023-08-06T03:28:31;15.00;99.90
23499;DHT22;11926;48.120;11.562;2023-08-06T03:31:19;15.00;99.90
23499;DHT22;11926;48.120;11.562;2023-08-06T03:34:07;15.00;99.90
23499;DHT22;11926;48.120;11.562;2023-08-06T03:36:55;14.90;99.90
23499;DHT22;11926;48.120;11.562;2023-08-06T03:39:42;14.90;99.90
23499;DHT22;11926;48.120;11.562;2023-08-06T03:42:29;14.90;99.90
23499;DHT22;11926;48.120;11.562;2023-08-06T03:45:17;14.90;99.90
23499;DHT22;11926;48.120;11.562;2023-08-06T03:48:04;14.90;99.90
23499;DHT22;11926;48.120;11.562;2023-08-06T03:50:51;14.90;99.90
23499;DHT22;11926;48.120;11.562;2023-08-06T03:53:40;14.80;99.90
23499;DHT22;11926;48.120;11.562;2023-08-06T03:56:27;14.80;99.90
23499;DHT22;11926;48.120;11.562;2023-08-06T03:59:14;14.80;99.90
23499;DHT22;11926;48.120;11.562;2023-08-06T04:02:03;14.80;99.90
23499;DHT22;11926;48.120;11.562;2023-08-06T04:04:50;14.70;99.90
23499;DHT22;11926;48.120;11.562;2023-08-06T04:07:39;14.70;99.90
23499;DHT22;11926;48.120;11.562;2023-08-06T04:10:28;14.70;99.90
23499;DHT22;11926;48.120;11.562;2023-08-06T04:13:15;14.60;99.90
23499;DHT22;11926;48.120;11.562;2023-08-06T04:16:03;14.60;99.90
23499;DHT22;11926;48.120;11.562;2023-08-06T04:18:51;14.60;99.90
23499;DHT22;11926;48.120;11.562;2023-08-06T04:21:39;14.60;99.90
23499;DHT22;11926;48.120;11.562;2023-08-06T04:24:26;14.70;99.90
23499;DHT22;11926;48.120;11.562;2023-08-06T04:27:16;14.60;99.90
23499;DHT22;11926;48.120;11.562;2023-08-06T04:30:05;14.70;99.90
23499;DHT22;11926;48.120;11.562;2023-08-06T04:32:56;14.70;99.90
23499;DHT22;11926;48.120;11.562;2023-08-06T04:35:45;14.70;99.90
23499;DHT22;11926;48.120;11.562;2023-08-06T04:38:32;14.70;99.90
23499;DHT22;11926;48.120;11.562;2023-08-06T04:41:19;14.70;99.90
23499;DHT22;11926;48.120;11.562;2023-08-06T04:44:07;14.70;99.90
23499;DHT22;11926;48.120;11.562;2023-08-06T04:46:54;14.80;99.90
23499;DHT22;11926;48.120;11.562;2023-08-06T04:49:41;14.80;99.90
23499;DHT22;11926;48.120;11.562;2023-08-06T04:52:28;14.80;99.90
23499;DHT22;11926;48.120;11.562;2023-08-06T04:55:18;14.90;99.90
23499;DHT22;11926;48.120;11.562;2023-08-06T04:58:05;14.90;99.90
23499;DHT22;11926;48.120;11.562;2023-08-06T05:00:54;15.00;99.90
23499;DHT22;11926;48.120;11.562;2023-08-06T05:03:41;15.10;99.90
23499;DHT22;11926;48.120;11.562;2023-08-06T05:06:28;15.10;99.90
23499;DHT22;11926;48.120;11.562;2023-08-06T05:09:16;15.20;99.90
23499;DHT22;11926;48.120;11.562;2023-08-06T05:12:04;15.20;99.90
23499;DHT22;11926;48.120;11.562;2023-08-06T05:14:52;15.20;99.90
23499;DHT22;11926;48.120;11.562;2023-08-06T05:17:40;15.20;99.90
23499;DHT22;11926;48.120;11.562;2023-08-06T05:20:28;15.30;99.90
23499;DHT22;11926;48.120;11.562;2023-08-06T05:23:15;15.30;99.90
23499;DHT22;11926;48.120;11.562;2023-08-06T05:26:03;15.30;99.90
23499;DHT22;11926;48.120;11.562;2023-08-06T05:28:50;15.30;99.90
23499;DHT22;11926;48.120;11.562;2023-08-06T05:31:37;15.40;99.90
23499;DHT22;11926;48.120;11.562;2023-08-06T05:34:26;15.40;99.90
23499;DHT22;11926;48.120;11.562;2023-08-06T05:37:13;15.40;99.90
23499;DHT22;11926;48.120;11.562;2023-08-06T05:39:59;15.40;99.90
23499;DHT22;11926;48.120;11.562;2023-08-06T05:42:47;15.40;99.90
23499;DHT22;11926;48.120;11.562;2023-08-06T05:45:34;15.40;99.90
23499;DHT22;11926;48.120;11.562;2023-08-06T05:48:22;15.50;99.90
23499;DHT22;11926;48.120;11.562;2023-08-06T05:51:12;15.50;99.90
23499;DHT22;11926;48.120;11.562;2023-08-06T05:54:00;15.50;99.90
23499;DHT22;11926;48.120;11.562;2023-08-06T05:56:46;15.50;99.90
23499;DHT22;11926;48.120;11.562;2023-08-06T05:59:34;15.70;99.90
23499;DHT22;11926;48.120;11.562;2023-08-06T06:02:21;15.70;99.90
23499;DHT22;11926;48.120;11.562;2023-08-06T06:05:08;15.70;99.90
23499;DHT22;11926;48.120;11.562;2023-08-06T06:07:57;15.80;99.90
23499;DHT22;11926;48.120;11.562;2023-08-06T06:10:44;15.90;99.90
23499;DHT22;11926;48.120;11.562;2023-08-06T06:13:30;16.00;99.90
23499;DHT22;11926;48.120;11.562;2023-08-06T06:16:17;16.10;99.90
23499;DHT22;11926;48.120;11.562;2023-08-06T06:19:04;16.10;99.90
23499;DHT22;11926;48.120;11.562;2023-08-06T06:21:51;16.30;99.90
23499;DHT22;11926;48.120;11.562;2023-08-06T06:24:40;16.40;99.90
23499;DHT22;11926;48.120;11.562;2023-08-06T06:27:27;16.50;99.90
23499;DHT22;11926;48.120;11.562;2023-08-06T06:30:14;16.60;99.90
23499;DHT22;11926;48.120;11.562;2023-08-06T06:33:01;16.60;99.90
23499;DHT22;11926;48.120;11.562;2023-08-06T06:35:49;16.70;99.90
23499;DHT22;11926;48.120;11.562;2023-08-06T06:38:37;16.80;99.90
23499;DHT22;11926;48.120;11.562;2023-08-06T06:41:26;17.00;99.70
23499;DHT22;11926;48.120;11.562;2023-08-06T06:44:22;17.10;99.60
23499;DHT22;11926;48.120;11.562;2023-08-06T06:47:09;17.20;99.10
23499;DHT22;11926;48.120;11.562;2023-08-06T06:49:56;17.20;98.60
23499;DHT22;11926;48.120;11.562;2023-08-06T06:52:43;17.40;98.10
23499;DHT22;11926;48.120;11.562;2023-08-06T06:55:30;17.40;97.90
23499;DHT22;11926;48.120;11.562;2023-08-06T06:58:19;17.50;97.70
23499;DHT22;11926;48.120;11.562;2023-08-06T07:01:06;17.70;98.00
23499;DHT22;11926;48.120;11.562;2023-08-06T07:03:53;17.90;97.80
23499;DHT22;11926;48.120;11.562;2023-08-06T07:06:41;18.00;96.80
23499;DHT22;11926;48.120;11.562;2023-08-06T07:09:28;18.00;96.70
23499;DHT22;11926;48.120;11.562;2023-08-06T07:12:14;18.20;96.40
23499;DHT22;11926;48.120;11.562;2023-08-06T07:15:04;18.50;95.80
23499;DHT22;11926;48.120;11.562;2023-08-06T07:17:51;18.60;95.50
23499;DHT22;11926;48.120;11.562;2023-08-06T07:20:39;18.60;94.50
23499;DHT22;11926;48.120;11.562;2023-08-06T07:23:26;18.60;94.60
23499;DHT22;11926;48.120;11.562;2023-08-06T07:26:14;18.50;94.60
23499;DHT22;11926;48.120;11.562;2023-08-06T07:29:02;18.50;94.70
23499;DHT22;11926;48.120;11.562;2023-08-06T07:31:50;18.40;94.90
23499;DHT22;11926;48.120;11.562;2023-08-06T07:34:39;18.40;94.80
23499;DHT22;11926;48.120;11.562;2023-08-06T07:37:26;18.20;94.50
23499;DHT22;11926;48.120;11.562;2023-08-06T07:40:14;18.10;94.50
23499;DHT22;11926;48.120;11.562;2023-08-06T07:43:01;18.00;94.70
23499;DHT22;11926;48.120;11.562;2023-08-06T07:45:48;18.00;94.80
23499;DHT22;11926;48.120;11.562;2023-08-06T07:48:36;18.10;94.80
23499;DHT22;11926;48.120;11.562;2023-08-06T07:51:23;18.10;94.80
23499;DHT22;11926;48.120;11.562;2023-08-06T07:54:11;18.00;94.70
23499;DHT22;11926;48.120;11.562;2023-08-06T07:56:58;18.00;94.90
23499;DHT22;11926;48.120;11.562;2023-08-06T07:59:45;18.00;94.90
23499;DHT22;11926;48.120;11.562;2023-08-06T08:02:32;18.20;94.90
23499;DHT22;11926;48.120;11.562;2023-08-06T08:05:21;18.70;94.70
23499;DHT22;11926;48.120;11.562;2023-08-06T08:08:08;19.50;93.90
23499;DHT22;11926;48.120;11.562;2023-08-06T08:10:55;20.00;92.50
23499;DHT22;11926;48.120;11.562;2023-08-06T08:13:44;20.60;91.40
23499;DHT22;11926;48.120;11.562;2023-08-06T08:16:32;21.00;90.50
23499;DHT22;11926;48.120;11.562;2023-08-06T08:19:19;21.20;89.50
23499;DHT22;11926;48.120;11.562;2023-08-06T08:22:08;21.50;91.50
23499;DHT22;11926;48.120;11.562;2023-08-06T08:24:56;23.00;88.80
23499;DHT22;11926;48.120;11.562;2023-08-06T08:27:43;25.20;80.80
23499;DHT22;11926;48.120;11.562;2023-08-06T08:30:30;26.00;73.60
23499;DHT22;11926;48.120;11.562;2023-08-06T08:33:17;25.60;71.60
23499;DHT22;11926;48.120;11.562;2023-08-06T08:36:04;25.10;71.60
23499;DHT22;11926;48.120;11.562;2023-08-06T08:38:52;24.60;71.60
23499;DHT22;11926;48.120;11.562;2023-08-06T08:41:40;24.00;71.60
23499;DHT22;11926;48.120;11.562;2023-08-06T08:44:27;23.30;72.30
23499;DHT22;11926;48.120;11.562;2023-08-06T08:47:15;22.60;73.40
23499;DHT22;11926;48.120;11.562;2023-08-06T08:50:03;22.20;75.40
23499;DHT22;11926;48.120;11.562;2023-08-06T08:52:52;21.70;75.50
23499;DHT22;11926;48.120;11.562;2023-08-06T08:55:40;21.30;76.50
23499;DHT22;11926;48.120;11.562;2023-08-06T08:58:30;21.10;76.90
23499;DHT22;11926;48.120;11.562;2023-08-06T09:01:20;21.10;78.30
23499;DHT22;11926;48.120;11.562;2023-08-06T09:04:09;21.20;77.70
23499;DHT22;11926;48.120;11.562;2023-08-06T09:06:58;21.10;76.90
23499;DHT22;11926;48.120;11.562;2023-08-06T09:09:49;21.00;77.10
23499;DHT22;11926;48.120;11.562;2023-08-06T09:12:37;21.00;77.20
23499;DHT22;11926;48.120;11.562;2023-08-06T09:15:25;21.20;78.50
23499;DHT22;11926;48.120;11.562;2023-08-06T09:18:13;21.30;77.50
23499;DHT22;11926;48.120;11.562;2023-08-06T09:21:00;21.20;77.90
23499;DHT22;11926;48.120;11.562;2023-08-06T09:23:47;21.00;78.00
23499;DHT22;11926;48.120;11.562;2023-08-06T09:26:34;20.80;78.60
23499;DHT22;11926;48.120;11.562;2023-08-06T09:29:22;20.60;78.50
23499;DHT22;11926;48.120;11.562;2023-08-06T09:32:09;20.50;78.70
23499;DHT22;11926;48.120;11.562;2023-08-06T09:34:57;20.30;79.10
23499;DHT22;11926;48.120;11.562;2023-08-06T09:37:44;20.10;80.30
23499;DHT22;11926;48.120;11.562;2023-08-06T09:40:34;20.00;81.20
23499;DHT22;11926;48.120;11.562;2023-08-06T09:43:23;19.90;81.00
23499;DHT22;11926;48.120;11.562;2023-08-06T09:46:13;19.90;81.10
23499;DHT22;11926;48.120;11.562;2023-08-06T09:49:03;19.90;81.80
23499;DHT22;11926;48.120;11.562;2023-08-06T09:51:54;20.00;80.70
23499;DHT22;11926;48.120;11.562;2023-08-06T09:54:44;20.00;80.80
23499;DHT22;11926;48.120;11.562;2023-08-06T09:57:32;19.90;80.90
23499;DHT22;11926;48.120;11.562;2023-08-06T10:00:19;20.00;80.80
23499;DHT22;11926;48.120;11.562;2023-08-06T10:03:10;20.00;80.30
23499;DHT22;11926;48.120;11.562;2023-08-06T10:05:59;19.90;79.60
23499;DHT22;11926;48.120;11.562;2023-08-06T10:08:48;19.80;80.00
23499;DHT22;11926;48.120;11.562;2023-08-06T10:11:37;19.70;80.10
23499;DHT22;11926;48.120;11.562;2023-08-06T10:14:28;19.60;80.70
23499;DHT22;11926;48.120;11.562;2023-08-06T10:17:17;19.50;80.70
23499;DHT22;11926;48.120;11.562;2023-08-06T10:20:09;19.40;81.00
23499;DHT22;11926;48.120;11.562;2023-08-06T10:23:01;19.40;81.80
23499;DHT22;11926;48.120;11.562;2023-08-06T10:25:54;19.50;81.10
23499;DHT22;11926;48.120;11.562;2023-08-06T10:28:42;20.00;81.50
23499;DHT22;11926;48.120;11.562;2023-08-06T10:31:53;20.60;81.00
23499;DHT22;11926;48.120;11.562;2023-08-06T10:37:48;21.20;77.50
23499;DHT22;11926;48.120;11.562;2023-08-06T10:40:35;21.10;76.80
23499;DHT22;11926;48.120;11.562;2023-08-06T10:43:26;20.90;76.60
23499;DHT22;11926;48.120;11.562;2023-08-06T10:46:22;20.80;77.20
23499;DHT22;11926;48.120;11.562;2023-08-06T10:49:11;20.80;77.50
23499;DHT22;11926;48.120;11.562;2023-08-06T10:51:59;20.90;77.30
23499;DHT22;11926;48.120;11.562;2023-08-06T10:54:47;20.80;77.00
23499;DHT22;11926;48.120;11.562;2023-08-06T10:57:35;20.80;77.80
23499;DHT22;11926;48.120;11.562;2023-08-06T11:00:23;21.00;77.30
23499;DHT22;11926;48.120;11.562;2023-08-06T11:03:10;21.20;76.70
23499;DHT22;11926;48.120;11.562;2023-08-06T11:05:57;21.40;75.50
23499;DHT22;11926;48.120;11.562;2023-08-06T11:08:48;21.50;75.20
23499;DHT22;11926;48.120;11.562;2023-08-06T11:11:37;21.50;74.60
23499;DHT22;11926;48.120;11.562;2023-08-06T11:14:25;21.50;75.40
23499;DHT22;11926;48.120;11.562;2023-08-06T11:17:12;21.50;74.50
23499;DHT22;11926;48.120;11.562;2023-08-06T11:19:59;21.40;74.20
23499;DHT22;11926;48.120;11.562;2023-08-06T11:22:46;21.40;74.60
23499;DHT22;11926;48.120;11.562;2023-08-06T11:25:36;21.10;74.60
23499;DHT22;11926;48.120;11.562;2023-08-06T11:28:25;20.90;75.10
23499;DHT22;11926;48.120;11.562;2023-08-06T11:31:19;20.70;75.20
23499;DHT22;11926;48.120;11.562;2023-08-06T11:34:06;20.60;76.30
23499;DHT22;11926;48.120;11.562;2023-08-06T11:36:54;20.70;76.70
23499;DHT22;11926;48.120;11.562;2023-08-06T11:39:46;20.70;76.90
23499;DHT22;11926;48.120;11.562;2023-08-06T11:42:36;20.70;78.00
23499;DHT22;11926;48.120;11.562;2023-08-06T11:45:24;20.60;78.90
23499;DHT22;11926;48.120;11.562;2023-08-06T11:48:11;20.60;79.00
23499;DHT22;11926;48.120;11.562;2023-08-06T11:50:58;20.60;79.50
23499;DHT22;11926;48.120;11.562;2023-08-06T11:53:48;20.60;78.90
23499;DHT22;11926;48.120;11.562;2023-08-06T11:56:36;20.80;78.70
23499;DHT22;11926;48.120;11.562;2023-08-06T11:59:25;20.80;78.20
23499;DHT22;11926;48.120;11.562;2023-08-06T12:02:14;20.80;77.70
23499;DHT22;11926;48.120;11.562;2023-08-06T12:05:03;20.90;78.10
23499;DHT22;11926;48.120;11.562;2023-08-06T12:07:52;21.00;78.20
23499;DHT22;11926;48.120;11.562;2023-08-06T12:10:40;21.20;77.20
23499;DHT22;11926;48.120;11.562;2023-08-06T12:13:27;21.30;76.50
23499;DHT22;11926;48.120;11.562;2023-08-06T12:16:14;21.40;76.30
23499;DHT22;11926;48.120;11.562;2023-08-06T12:19:04;21.30;75.60
23499;DHT22;11926;48.120;11.562;2023-08-06T12:21:52;21.10;75.70
23499;DHT22;11926;48.120;11.562;2023-08-06T12:24:40;20.90;76.30
23499;DHT22;11926;48.120;11.562;2023-08-06T12:27:27;20.80;76.90
23499;DHT22;11926;48.120;11.562;2023-08-06T12:30:15;20.70;77.10
23499;DHT22;11926;48.120;11.562;2023-08-06T12:33:02;20.60;77.40
23499;DHT22;11926;48.120;11.562;2023-08-06T12:35:51;20.60;77.40
23499;DHT22;11926;48.120;11.562;2023-08-06T12:38:40;20.60;77.50
23499;DHT22;11926;48.120;11.562;2023-08-06T12:41:27;20.40;77.50
23499;DHT22;11926;48.120;11.562;2023-08-06T12:44:14;20.30;78.50
23499;DHT22;11926;48.120;11.562;2023-08-06T12:47:01;20.10;79.10
23499;DHT22;11926;48.120;11.562;2023-08-06T12:49:49;19.90;79.80
23499;DHT22;11926;48.120;11.562;2023-08-06T12:52:38;19.70;80.60
23499;DHT22;11926;48.120;11.562;2023-08-06T12:55:25;19.60;81.20
23499;DHT22;11926;48.120;11.562;2023-08-06T12:58:13;19.50;82.00
23499;DHT22;11926;48.120;11.562;2023-08-06T13:01:00;19.60;82.60
23499;DHT22;11926;48.120;11.562;2023-08-06T13:03:47;19.70;82.80
23499;DHT22;11926;48.120;11.562;2023-08-06T13:06:34;19.90;82.30
23499;DHT22;11926;48.120;11.562;2023-08-06T13:09:24;20.00;81.30
23499;DHT22;11926;48.120;11.562;2023-08-06T13:12:12;20.00;81.40
23499;DHT22;11926;48.120;11.562;2023-08-06T13:14:59;20.00;81.20
23499;DHT22;11926;48.120;11.562;2023-08-06T13:17:46;19.90;81.30
23499;DHT22;11926;48.120;11.562;2023-08-06T13:20:34;19.90;82.50
23499;DHT22;11926;48.120;11.562;2023-08-06T13:23:21;20.00;83.50
23499;DHT22;11926;48.120;11.562;2023-08-06T13:26:09;20.00;84.40
23499;DHT22;11926;48.120;11.562;2023-08-06T13:28:57;19.90;85.20
23499;DHT22;11926;48.120;11.562;2023-08-06T13:31:44;19.80;85.60
23499;DHT22;11926;48.120;11.562;2023-08-06T13:34:32;19.60;85.90
23499;DHT22;11926;48.120;11.562;2023-08-06T13:37:19;19.40;86.80
23499;DHT22;11926;48.120;11.562;2023-08-06T13:40:07;19.30;87.20
23499;DHT22;11926;48.120;11.562;2023-08-06T13:42:56;19.20;88.20
23499;DHT22;11926;48.120;11.562;2023-08-06T13:45:44;19.30;88.80
23499;DHT22;11926;48.120;11.562;2023-08-06T13:48:31;19.30;88.90
23499;DHT22;11926;48.120;11.562;2023-08-06T13:51:18;19.30;89.50
23499;DHT22;11926;48.120;11.562;2023-08-06T13:54:05;19.20;88.70
23499;DHT22;11926;48.120;11.562;2023-08-06T13:56:52;19.20;89.60
23499;DHT22;11926;48.120;11.562;2023-08-06T13:59:41;19.10;89.80
23499;DHT22;11926;48.120;11.562;2023-08-06T14:02:29;19.10;89.50
23499;DHT22;11926;48.120;11.562;2023-08-06T14:05:17;18.90;90.00
23499;DHT22;11926;48.120;11.562;2023-08-06T14:08:04;18.70;90.30
23499;DHT22;11926;48.120;11.562;2023-08-06T14:10:51;18.60;90.40
23499;DHT22;11926;48.120;11.562;2023-08-06T14:13:38;18.50;91.20
23499;DHT22;11926;48.120;11.562;2023-08-06T14:16:26;18.40;91.40
23499;DHT22;11926;48.120;11.562;2023-08-06T14:19:13;18.40;91.60
23499;DHT22;11926;48.120;11.562;2023-08-06T14:22:00;18.30;91.80
23499;DHT22;11926;48.120;11.562;2023-08-06T14:24:48;18.30;92.00
23499;DHT22;11926;48.120;11.562;2023-08-06T14:27:37;18.20;91.90
23499;DHT22;11926;48.120;11.562;2023-08-06T14:30:24;18.10;92.00
23499;DHT22;11926;48.120;11.562;2023-08-06T14:33:13;18.00;92.10
23499;DHT22;11926;48.120;11.562;2023-08-06T14:36:12;17.80;92.40
23499;DHT22;11926;48.120;11.562;2023-08-06T14:38:59;17.70;92.50
23499;DHT22;11926;48.120;11.562;2023-08-06T14:41:47;17.60;92.90
23499;DHT22;11926;48.120;11.562;2023-08-06T14:44:34;17.50;93.30
23499;DHT22;11926;48.120;11.562;2023-08-06T14:47:21;17.50;93.90
23499;DHT22;11926;48.120;11.562;2023-08-06T14:50:10;17.40;93.70
23499;DHT22;11926;48.120;11.562;2023-08-06T14:52:57;17.30;94.00
23499;DHT22;11926;48.120;11.562;2023-08-06T14:55:50;17.30;94.20
23499;DHT22;11926;48.120;11.562;2023-08-06T14:58:36;17.30;94.40
23499;DHT22;11926;48.120;11.562;2023-08-06T15:01:23;17.20;94.60
23499;DHT22;11926;48.120;11.562;2023-08-06T15:04:10;17.20;94.60
23499;DHT22;11926;48.120;11.562;2023-08-06T15:06:59;17.10;94.70
23499;DHT22;11926;48.120;11.562;2023-08-06T15:09:46;17.10;94.80
23499;DHT22;11926;48.120;11.562;2023-08-06T15:12:53;17.00;95.00
23499;DHT22;11926;48.120;11.562;2023-08-06T15:15:41;17.00;95.40
23499;DHT22;11926;48.120;11.562;2023-08-06T15:18:30;17.00;95.60
23499;DHT22;11926;48.120;11.562;2023-08-06T15:21:18;17.10;95.50
23499;DHT22;11926;48.120;11.562;2023-08-06T15:24:06;17.10;95.20
23499;DHT22;11926;48.120;11.562;2023-08-06T15:26:53;17.00;95.10
23499;DHT22;11926;48.120;11.562;2023-08-06T15:29:41;16.90;95.30
23499;DHT22;11926;48.120;11.562;2023-08-06T15:32:29;16.90;95.40
23499;DHT22;11926;48.120;11.562;2023-08-06T15:35:16;16.90;95.60
23499;DHT22;11926;48.120;11.562;2023-08-06T15:38:03;16.80;95.60
23499;DHT22;11926;48.120;11.562;2023-08-06T15:40:51;16.80;95.80
23499;DHT22;11926;48.120;11.562;2023-08-06T15:43:38;16.70;96.00
23499;DHT22;11926;48.120;11.562;2023-08-06T15:46:27;16.60;96.10
23499;DHT22;11926;48.120;11.562;2023-08-06T15:49:14;16.60;96.00
23499;DHT22;11926;48.120;11.562;2023-08-06T15:52:02;16.50;96.30
23499;DHT22;11926;48.120;11.562;2023-08-06T15:54:49;16.40;96.50
23499;DHT22;11926;48.120;11.562;2023-08-06T15:57:37;16.30;96.60
23499;DHT22;11926;48.120;11.562;2023-08-06T16:00:24;16.20;96.80
23499;DHT22;11926;48.120;11.562;2023-08-06T16:03:12;16.10;96.90
23499;DHT22;11926;48.120;11.562;2023-08-06T16:05:59;16.10;97.10
23499;DHT22;11926;48.120;11.562;2023-08-06T16:08:46;16.10;97.20
23499;DHT22;11926;48.120;11.562;2023-08-06T16:11:33;16.10;97.40
23499;DHT22;11926;48.120;11.562;2023-08-06T16:14:21;16.10;97.40
23499;DHT22;11926;48.120;11.562;2023-08-06T16:17:08;16.20;97.40
23499;DHT22;11926;48.120;11.562;2023-08-06T16:19:55;16.10;97.40
23499;DHT22;11926;48.120;11.562;2023-08-06T16:22:42;16.20;97.20
23499;DHT22;11926;48.120;11.562;2023-08-06T16:25:30;16.10;97.10
23499;DHT22;11926;48.120;11.562;2023-08-06T16:28:17;16.00;97.30
23499;DHT22;11926;48.120;11.562;2023-08-06T16:31:05;15.90;97.30
23499;DHT22;11926;48.120;11.562;2023-08-06T16:39:28;15.30;99.90
23499;DHT22;11926;48.120;11.562;2023-08-06T16:42:15;15.80;99.90
23499;DHT22;11926;48.120;11.562;2023-08-06T16:45:02;15.80;99.90
23499;DHT22;11926;48.120;11.562;2023-08-06T16:47:51;15.80;99.90
23499;DHT22;11926;48.120;11.562;2023-08-06T16:50:38;15.80;99.90
23499;DHT22;11926;48.120;11.562;2023-08-06T16:53:24;15.60;97.50
23499;DHT22;11926;48.120;11.562;2023-08-06T16:56:12;15.60;98.00
23499;DHT22;11926;48.120;11.562;2023-08-06T16:59:00;15.60;97.90
23499;DHT22;11926;48.120;11.562;2023-08-06T17:01:47;15.60;98.00
23499;DHT22;11926;48.120;11.562;2023-08-06T17:04:36;15.50;98.10
23499;DHT22;11926;48.120;11.562;2023-08-06T17:07:22;15.60;98.40
23499;DHT22;11926;48.120;11.562;2023-08-06T17:10:10;15.60;98.50
23499;DHT22;11926;48.120;11.562;2023-08-06T17:12:57;15.60;98.20
23499;DHT22;11926;48.120;11.562;2023-08-06T17:16:04;15.60;98.30
23499;DHT22;11926;48.120;11.562;2023-08-06T17:18:51;15.50;98.40
23499;DHT22;11926;48.120;11.562;2023-08-06T17:21:40;15.50;98.40
23499;DHT22;11926;48.120;11.562;2023-08-06T17:24:27;15.50;98.40
23499;DHT22;11926;48.120;11.562;2023-08-06T17:27:14;15.50;98.40
23499;DHT22;11926;48.120;11.562;2023-08-06T17:30:01;15.50;98.50
23499;DHT22;11926;48.120;11.562;2023-08-06T17:32:49;15.50;98.50
23499;DHT22;11926;48.120;11.562;2023-08-06T17:35:36;15.40;98.40